Ghanzi, Botswana
Current Conditions -  °F | °C
As of 12:00 PM on Saturday 22 Nov 2014 (Local Time) from FBMN Reporting Station
Scattered Clouds Scattered Clouds  
Wind Chill: 95°   Ceiling: Unl
Heat Index: 95°   Visibility: 6mi
Dew Point: 50°   Wind: 13mph
Humidity: 22%   Direction: 320°NW
Pressure: 30"   Gusts: NA
Location:  21.7°S, 21.64°E
Report Text: FBMN 221000Z 32011KT 9999 SCT030 35/10 Q1016
Loading
Personal Weather Stations






























Interactive Weather Map New forecast layout! Learn more

10-Day Weather Forecast

Advertisements
Track Severe Weather on mobile